sensor_id;sensor_type;location;lat;lon;timestamp;temperature;humidity
39655;DHT22;25336;59.944;11.010;2022-10-22T00:01:54;6.90;73.90
39655;DHT22;25336;59.944;11.010;2022-10-22T00:04:19;6.90;74.00
39655;DHT22;25336;59.944;11.010;2022-10-22T00:06:45;8.10;74.80
39655;DHT22;25336;59.944;11.010;2022-10-22T00:09:11;7.80;74.70
39655;DHT22;25336;59.944;11.010;2022-10-22T00:11:37;8.10;74.80
39655;DHT22;25336;59.944;11.010;2022-10-22T00:14:03;6.80;74.10
39655;DHT22;25336;59.944;11.010;2022-10-22T00:16:28;8.10;74.90
39655;DHT22;25336;59.944;11.010;2022-10-22T00:18:54;6.90;74.10
39655;DHT22;25336;59.944;11.010;2022-10-22T00:21:19;8.00;74.80
39655;DHT22;25336;59.944;11.010;2022-10-22T00:23:45;7.80;74.70
39655;DHT22;25336;59.944;11.010;2022-10-22T00:26:11;6.80;74.10
39655;DHT22;25336;59.944;11.010;2022-10-22T00:28:37;6.80;74.10
39655;DHT22;25336;59.944;11.010;2022-10-22T00:31:03;7.00;74.20
39655;DHT22;25336;59.944;11.010;2022-10-22T00:33:29;6.80;74.10
39655;DHT22;25336;59.944;11.010;2022-10-22T00:35:55;6.80;74.10
39655;DHT22;25336;59.944;11.010;2022-10-22T00:38:21;7.80;74.80
39655;DHT22;25336;59.944;11.010;2022-10-22T00:40:47;7.50;74.60
39655;DHT22;25336;59.944;11.010;2022-10-22T00:43:15;6.90;74.20
39655;DHT22;25336;59.944;11.010;2022-10-22T00:45:41;6.90;74.20
39655;DHT22;25336;59.944;11.010;2022-10-22T00:48:15;6.80;74.10
39655;DHT22;25336;59.944;11.010;2022-10-22T00:50:51;6.90;74.10
39655;DHT22;25336;59.944;11.010;2022-10-22T00:53:44;8.20;75.00
39655;DHT22;25336;59.944;11.010;2022-10-22T00:56:12;7.70;74.70
39655;DHT22;25336;59.944;11.010;2022-10-22T00:58:45;6.90;74.10
39655;DHT22;25336;59.944;11.010;2022-10-22T01:01:16;6.90;74.10
39655;DHT22;25336;59.944;11.010;2022-10-22T01:03:42;8.00;74.80
39655;DHT22;25336;59.944;11.010;2022-10-22T01:06:12;7.30;74.30
39655;DHT22;25336;59.944;11.010;2022-10-22T01:14:24;7.90;74.70
39655;DHT22;25336;59.944;11.010;2022-10-22T01:17:17;6.90;74.10
39655;DHT22;25336;59.944;11.010;2022-10-22T01:25:33;6.80;74.10
39655;DHT22;25336;59.944;11.010;2022-10-22T01:28:12;6.90;74.10
39655;DHT22;25336;59.944;11.010;2022-10-22T01:30:43;6.90;74.10
39655;DHT22;25336;59.944;11.010;2022-10-22T01:33:12;6.90;74.10
39655;DHT22;25336;59.944;11.010;2022-10-22T01:35:41;6.90;74.00
39655;DHT22;25336;59.944;11.010;2022-10-22T01:38:10;6.90;74.00
39655;DHT22;25336;59.944;11.010;2022-10-22T01:40:37;6.90;74.10
39655;DHT22;25336;59.944;11.010;2022-10-22T01:43:08;7.70;74.70
39655;DHT22;25336;59.944;11.010;2022-10-22T01:45:45;6.90;74.10
39655;DHT22;25336;59.944;11.010;2022-10-22T01:51:35;6.90;74.10
39655;DHT22;25336;59.944;11.010;2022-10-22T02:02:04;6.90;74.20
39655;DHT22;25336;59.944;11.010;2022-10-22T02:04:42;6.90;73.90
39655;DHT22;25336;59.944;11.010;2022-10-22T02:07:11;6.90;73.90
39655;DHT22;25336;59.944;11.010;2022-10-22T02:09:40;6.90;73.90
39655;DHT22;25336;59.944;11.010;2022-10-22T02:12:07;7.20;74.20
39655;DHT22;25336;59.944;11.010;2022-10-22T02:14:36;7.80;74.70
39655;DHT22;25336;59.944;11.010;2022-10-22T02:17:03;6.80;74.20
39655;DHT22;25336;59.944;11.010;2022-10-22T02:22:02;6.80;74.30
39655;DHT22;25336;59.944;11.010;2022-10-22T02:24:28;6.80;74.30
39655;DHT22;25336;59.944;11.010;2022-10-22T02:27:04;6.80;74.40
39655;DHT22;25336;59.944;11.010;2022-10-22T02:29:37;8.00;75.70
39655;DHT22;25336;59.944;11.010;2022-10-22T02:32:05;6.80;74.40
39655;DHT22;25336;59.944;11.010;2022-10-22T02:34:31;6.80;74.50
39655;DHT22;25336;59.944;11.010;2022-10-22T02:36:59;6.80;74.50
39655;DHT22;25336;59.944;11.010;2022-10-22T02:39:25;6.80;75.30
39655;DHT22;25336;59.944;11.010;2022-10-22T02:41:51;6.80;74.70
39655;DHT22;25336;59.944;11.010;2022-10-22T02:44:20;8.10;75.60
39655;DHT22;25336;59.944;11.010;2022-10-22T02:46:46;7.30;75.20
39655;DHT22;25336;59.944;11.010;2022-10-22T02:49:12;6.90;74.90
39655;DHT22;25336;59.944;11.010;2022-10-22T02:51:38;7.80;75.50
39655;DHT22;25336;59.944;11.010;2022-10-22T02:54:04;7.70;75.40
39655;DHT22;25336;59.944;11.010;2022-10-22T02:56:30;6.80;74.80
39655;DHT22;25336;59.944;11.010;2022-10-22T02:58:56;6.40;74.60
39655;DHT22;25336;59.944;11.010;2022-10-22T03:01:22;8.10;75.70
39655;DHT22;25336;59.944;11.010;2022-10-22T03:03:48;8.30;75.80
39655;DHT22;25336;59.944;11.010;2022-10-22T03:06:13;6.90;74.90
39655;DHT22;25336;59.944;11.010;2022-10-22T03:08:39;6.90;74.90
39655;DHT22;25336;59.944;11.010;2022-10-22T03:11:05;8.00;75.60
39655;DHT22;25336;59.944;11.010;2022-10-22T03:13:31;8.20;75.80
39655;DHT22;25336;59.944;11.010;2022-10-22T03:15:57;6.90;74.90
39655;DHT22;25336;59.944;11.010;2022-10-22T03:18:22;6.90;75.00
39655;DHT22;25336;59.944;11.010;2022-10-22T03:20:48;8.20;75.80
39655;DHT22;25336;59.944;11.010;2022-10-22T03:23:16;8.00;75.60
39655;DHT22;25336;59.944;11.010;2022-10-22T03:25:44;7.00;74.90
39655;DHT22;25336;59.944;11.010;2022-10-22T03:28:12;6.90;74.70
39655;DHT22;25336;59.944;11.010;2022-10-22T03:30:39;7.10;74.90
39655;DHT22;25336;59.944;11.010;2022-10-22T03:33:05;7.00;74.90
39655;DHT22;25336;59.944;11.010;2022-10-22T03:35:30;8.40;75.80
39655;DHT22;25336;59.944;11.010;2022-10-22T03:37:59;7.00;74.80
39655;DHT22;25336;59.944;11.010;2022-10-22T03:40:25;6.90;74.70
39655;DHT22;25336;59.944;11.010;2022-10-22T03:42:51;7.00;74.60
39655;DHT22;25336;59.944;11.010;2022-10-22T03:45:17;7.00;74.60
39655;DHT22;25336;59.944;11.010;2022-10-22T03:47:42;7.00;74.60
39655;DHT22;25336;59.944;11.010;2022-10-22T03:50:09;7.00;74.70
39655;DHT22;25336;59.944;11.010;2022-10-22T03:52:36;6.90;74.60
39655;DHT22;25336;59.944;11.010;2022-10-22T03:55:03;7.40;75.00
39655;DHT22;25336;59.944;11.010;2022-10-22T03:57:29;6.90;74.70
39655;DHT22;25336;59.944;11.010;2022-10-22T03:59:55;6.90;74.70
39655;DHT22;25336;59.944;11.010;2022-10-22T04:02:20;8.00;75.50
39655;DHT22;25336;59.944;11.010;2022-10-22T04:04:46;7.30;75.00
39655;DHT22;25336;59.944;11.010;2022-10-22T04:07:12;8.40;75.70
39655;DHT22;25336;59.944;11.010;2022-10-22T04:09:37;7.00;74.70
39655;DHT22;25336;59.944;11.010;2022-10-22T04:12:04;8.40;75.50
39655;DHT22;25336;59.944;11.010;2022-10-22T04:14:30;7.00;74.60
39655;DHT22;25336;59.944;11.010;2022-10-22T04:16:56;7.70;75.10
39655;DHT22;25336;59.944;11.010;2022-10-22T04:19:22;7.60;75.10
39655;DHT22;25336;59.944;11.010;2022-10-22T04:21:47;7.70;75.10
39655;DHT22;25336;59.944;11.010;2022-10-22T04:24:13;8.10;75.30
39655;DHT22;25336;59.944;11.010;2022-10-22T04:26:39;6.70;74.40
39655;DHT22;25336;59.944;11.010;2022-10-22T04:29:07;7.00;74.60
39655;DHT22;25336;59.944;11.010;2022-10-22T04:31:33;8.20;75.30
39655;DHT22;25336;59.944;11.010;2022-10-22T04:34:00;8.20;75.30
39655;DHT22;25336;59.944;11.010;2022-10-22T04:36:27;7.00;74.60
39655;DHT22;25336;59.944;11.010;2022-10-22T04:38:55;8.30;75.30
39655;DHT22;25336;59.944;11.010;2022-10-22T04:41:24;8.30;75.20
39655;DHT22;25336;59.944;11.010;2022-10-22T04:43:50;7.00;74.30
39655;DHT22;25336;59.944;11.010;2022-10-22T04:46:17;7.00;74.30
39655;DHT22;25336;59.944;11.010;2022-10-22T04:48:44;7.00;74.20
39655;DHT22;25336;59.944;11.010;2022-10-22T04:51:14;7.10;74.30
39655;DHT22;25336;59.944;11.010;2022-10-22T04:53:41;7.10;74.30
39655;DHT22;25336;59.944;11.010;2022-10-22T04:56:14;8.00;74.90
39655;DHT22;25336;59.944;11.010;2022-10-22T04:58:51;7.00;74.20
39655;DHT22;25336;59.944;11.010;2022-10-22T05:01:22;8.60;75.20
39655;DHT22;25336;59.944;11.010;2022-10-22T05:03:49;7.00;74.40
39655;DHT22;25336;59.944;11.010;2022-10-22T05:06:15;7.00;74.20
39655;DHT22;25336;59.944;11.010;2022-10-22T05:08:41;8.00;74.90
39655;DHT22;25336;59.944;11.010;2022-10-22T05:11:15;7.00;75.10
39655;DHT22;25336;59.944;11.010;2022-10-22T05:13:41;7.00;74.40
39655;DHT22;25336;59.944;11.010;2022-10-22T05:16:07;8.40;75.30
39655;DHT22;25336;59.944;11.010;2022-10-22T05:18:37;7.00;74.50
39655;DHT22;25336;59.944;11.010;2022-10-22T05:21:07;7.00;75.10
39655;DHT22;25336;59.944;11.010;2022-10-22T05:23:33;8.20;75.20
39655;DHT22;25336;59.944;11.010;2022-10-22T05:26:06;7.00;74.40
39655;DHT22;25336;59.944;11.010;2022-10-22T05:28:33;7.40;74.80
39655;DHT22;25336;59.944;11.010;2022-10-22T05:31:00;7.80;75.10
39655;DHT22;25336;59.944;11.010;2022-10-22T05:33:32;8.40;75.50
39655;DHT22;25336;59.944;11.010;2022-10-22T05:35:58;8.60;75.50
39655;DHT22;25336;59.944;11.010;2022-10-22T05:38:24;7.00;74.40
39655;DHT22;25336;59.944;11.010;2022-10-22T05:41:14;8.30;75.20
39655;DHT22;25336;59.944;11.010;2022-10-22T05:43:40;7.10;74.40
39655;DHT22;25336;59.944;11.010;2022-10-22T05:46:12;8.70;75.40
39655;DHT22;25336;59.944;11.010;2022-10-22T05:48:38;7.00;74.30
39655;DHT22;25336;59.944;11.010;2022-10-22T05:51:09;7.90;74.90
39655;DHT22;25336;59.944;11.010;2022-10-22T05:53:36;7.10;74.40
39655;DHT22;25336;59.944;11.010;2022-10-22T05:56:04;7.10;74.40
39655;DHT22;25336;59.944;11.010;2022-10-22T05:58:30;7.10;74.10
39655;DHT22;25336;59.944;11.010;2022-10-22T06:01:18;8.30;74.90
39655;DHT22;25336;59.944;11.010;2022-10-22T06:03:44;7.10;74.20
39655;DHT22;25336;59.944;11.010;2022-10-22T06:06:26;8.20;74.80
39655;DHT22;25336;59.944;11.010;2022-10-22T06:08:53;7.10;74.10
39655;DHT22;25336;59.944;11.010;2022-10-22T06:11:20;8.40;74.90
39655;DHT22;25336;59.944;11.010;2022-10-22T06:13:47;8.20;74.80
39655;DHT22;25336;59.944;11.010;2022-10-22T06:16:13;7.10;74.10
39655;DHT22;25336;59.944;11.010;2022-10-22T06:18:39;8.70;75.10
39655;DHT22;25336;59.944;11.010;2022-10-22T06:21:07;8.80;75.20
39655;DHT22;25336;59.944;11.010;2022-10-22T06:23:35;8.80;75.20
39655;DHT22;25336;59.944;11.010;2022-10-22T06:26:01;7.10;74.00
39655;DHT22;25336;59.944;11.010;2022-10-22T06:28:27;8.30;74.80
39655;DHT22;25336;59.944;11.010;2022-10-22T06:30:53;7.90;74.50
39655;DHT22;25336;59.944;11.010;2022-10-22T06:33:19;8.50;74.90
39655;DHT22;25336;59.944;11.010;2022-10-22T06:35:44;7.20;74.20
39655;DHT22;25336;59.944;11.010;2022-10-22T06:38:10;8.20;74.90
39655;DHT22;25336;59.944;11.010;2022-10-22T06:40:36;7.00;74.20
39655;DHT22;25336;59.944;11.010;2022-10-22T06:43:02;7.60;74.60
39655;DHT22;25336;59.944;11.010;2022-10-22T06:45:27;7.20;74.50
39655;DHT22;25336;59.944;11.010;2022-10-22T06:47:53;8.00;74.90
39655;DHT22;25336;59.944;11.010;2022-10-22T06:50:20;7.10;74.30
39655;DHT22;25336;59.944;11.010;2022-10-22T06:52:46;7.10;74.20
39655;DHT22;25336;59.944;11.010;2022-10-22T06:55:12;7.10;74.20
39655;DHT22;25336;59.944;11.010;2022-10-22T06:57:37;8.10;74.90
39655;DHT22;25336;59.944;11.010;2022-10-22T07:00:05;8.70;75.20
39655;DHT22;25336;59.944;11.010;2022-10-22T07:02:31;7.10;74.10
39655;DHT22;25336;59.944;11.010;2022-10-22T07:04:56;7.10;74.20
39655;DHT22;25336;59.944;11.010;2022-10-22T07:07:22;7.10;74.20
39655;DHT22;25336;59.944;11.010;2022-10-22T07:09:47;7.20;74.30
39655;DHT22;25336;59.944;11.010;2022-10-22T07:12:14;7.70;74.60
39655;DHT22;25336;59.944;11.010;2022-10-22T07:14:40;7.30;74.30
39655;DHT22;25336;59.944;11.010;2022-10-22T07:17:06;8.20;74.80
39655;DHT22;25336;59.944;11.010;2022-10-22T07:19:31;8.50;74.90
39655;DHT22;25336;59.944;11.010;2022-10-22T07:21:57;8.20;74.80
39655;DHT22;25336;59.944;11.010;2022-10-22T07:24:23;8.40;74.80
39655;DHT22;25336;59.944;11.010;2022-10-22T07:26:48;7.30;74.00
39655;DHT22;25336;59.944;11.010;2022-10-22T07:29:14;8.30;74.70
39655;DHT22;25336;59.944;11.010;2022-10-22T07:31:41;9.00;75.10
39655;DHT22;25336;59.944;11.010;2022-10-22T07:34:06;7.60;74.10
39655;DHT22;25336;59.944;11.010;2022-10-22T07:36:32;7.40;73.90
39655;DHT22;25336;59.944;11.010;2022-10-22T07:38:58;7.40;73.90
39655;DHT22;25336;59.944;11.010;2022-10-22T07:41:25;7.40;73.70
39655;DHT22;25336;59.944;11.010;2022-10-22T07:43:51;7.40;73.70
39655;DHT22;25336;59.944;11.010;2022-10-22T07:46:17;8.70;74.60
39655;DHT22;25336;59.944;11.010;2022-10-22T07:48:43;7.80;74.10
39655;DHT22;25336;59.944;11.010;2022-10-22T07:51:09;7.50;73.90
39655;DHT22;25336;59.944;11.010;2022-10-22T07:53:35;8.70;74.40
39655;DHT22;25336;59.944;11.010;2022-10-22T07:56:01;8.00;73.90
39655;DHT22;25336;59.944;11.010;2022-10-22T07:58:26;8.30;74.10
39655;DHT22;25336;59.944;11.010;2022-10-22T08:00:55;7.60;73.60
39655;DHT22;25336;59.944;11.010;2022-10-22T08:03:21;7.70;73.70
39655;DHT22;25336;59.944;11.010;2022-10-22T08:05:46;7.70;73.60
39655;DHT22;25336;59.944;11.010;2022-10-22T08:08:14;8.40;73.70
39655;DHT22;25336;59.944;11.010;2022-10-22T08:10:40;8.80;73.90
39655;DHT22;25336;59.944;11.010;2022-10-22T08:13:06;7.80;73.30
39655;DHT22;25336;59.944;11.010;2022-10-22T08:15:32;7.80;72.90
39655;DHT22;25336;59.944;11.010;2022-10-22T08:17:58;8.90;73.60
39655;DHT22;25336;59.944;11.010;2022-10-22T08:20:23;7.80;72.90
39655;DHT22;25336;59.944;11.010;2022-10-22T08:22:49;8.40;73.20
39655;DHT22;25336;59.944;11.010;2022-10-22T08:25:15;7.90;72.90
39655;DHT22;25336;59.944;11.010;2022-10-22T08:27:42;7.90;72.70
39655;DHT22;25336;59.944;11.010;2022-10-22T08:30:09;7.90;72.70
39655;DHT22;25336;59.944;11.010;2022-10-22T08:32:35;7.20;72.00
39655;DHT22;25336;59.944;11.010;2022-10-22T08:35:00;8.00;72.40
39655;DHT22;25336;59.944;11.010;2022-10-22T08:37:26;7.90;72.40
39655;DHT22;25336;59.944;11.010;2022-10-22T08:39:51;9.70;73.50
39655;DHT22;25336;59.944;11.010;2022-10-22T08:45:10;7.90;72.10
39655;DHT22;25336;59.944;11.010;2022-10-22T08:50:18;7.90;72.20
39655;DHT22;25336;59.944;11.010;2022-10-22T08:52:50;7.90;72.20
39655;DHT22;25336;59.944;11.010;2022-10-22T08:55:19;9.60;73.30
39655;DHT22;25336;59.944;11.010;2022-10-22T08:57:55;8.60;72.80
39655;DHT22;25336;59.944;11.010;2022-10-22T09:00:35;9.00;73.10
39655;DHT22;25336;59.944;11.010;2022-10-22T09:03:17;8.00;72.40
39655;DHT22;25336;59.944;11.010;2022-10-22T09:08:23;8.00;72.40
39655;DHT22;25336;59.944;11.010;2022-10-22T09:10:53;8.00;72.30
39655;DHT22;25336;59.944;11.010;2022-10-22T09:13:21;8.80;72.70
39655;DHT22;25336;59.944;11.010;2022-10-22T09:15:58;8.00;72.20
39655;DHT22;25336;59.944;11.010;2022-10-22T09:18:36;9.00;72.80
39655;DHT22;25336;59.944;11.010;2022-10-22T09:24:15;8.10;72.10
39655;DHT22;25336;59.944;11.010;2022-10-22T09:26:42;8.10;71.90
39655;DHT22;25336;59.944;11.010;2022-10-22T09:29:22;8.40;73.00
39655;DHT22;25336;59.944;11.010;2022-10-22T09:31:49;9.70;73.10
39655;DHT22;25336;59.944;11.010;2022-10-22T09:34:19;8.10;72.10
39655;DHT22;25336;59.944;11.010;2022-10-22T09:36:45;8.10;72.10
39655;DHT22;25336;59.944;11.010;2022-10-22T09:39:26;9.50;73.10
39655;DHT22;25336;59.944;11.010;2022-10-22T09:41:52;8.80;72.50
39655;DHT22;25336;59.944;11.010;2022-10-22T09:44:19;9.80;73.30
39655;DHT22;25336;59.944;11.010;2022-10-22T09:46:45;8.10;72.10
39655;DHT22;25336;59.944;11.010;2022-10-22T09:49:16;8.20;72.20
39655;DHT22;25336;59.944;11.010;2022-10-22T09:51:58;9.50;73.00
39655;DHT22;25336;59.944;11.010;2022-10-22T09:57:05;8.30;72.30
39655;DHT22;25336;59.944;11.010;2022-10-22T09:59:39;8.40;71.90
39655;DHT22;25336;59.944;11.010;2022-10-22T10:02:11;8.50;72.00
39655;DHT22;25336;59.944;11.010;2022-10-22T10:04:45;8.50;71.40
39655;DHT22;25336;59.944;11.010;2022-10-22T10:07:16;8.60;71.40
39655;DHT22;25336;59.944;11.010;2022-10-22T10:09:42;8.60;71.40
39655;DHT22;25336;59.944;11.010;2022-10-22T10:14:46;8.80;71.20
39655;DHT22;25336;59.944;11.010;2022-10-22T10:17:27;9.80;71.70
39655;DHT22;25336;59.944;11.010;2022-10-22T10:20:38;8.80;70.80
39655;DHT22;25336;59.944;11.010;2022-10-22T10:23:26;8.90;70.50
39655;DHT22;25336;59.944;11.010;2022-10-22T10:34:10;9.10;70.40
39655;DHT22;25336;59.944;11.010;2022-10-22T10:39:44;9.20;70.30
39655;DHT22;25336;59.944;11.010;2022-10-22T10:50:25;9.40;69.30
39655;DHT22;25336;59.944;11.010;2022-10-22T10:53:26;10.50;70.10
39655;DHT22;25336;59.944;11.010;2022-10-22T11:07:18;9.70;69.00
39655;DHT22;25336;59.944;11.010;2022-10-22T11:09:56;9.70;68.90
39655;DHT22;25336;59.944;11.010;2022-10-22T11:12:35;9.70;68.70
39655;DHT22;25336;59.944;11.010;2022-10-22T11:15:19;10.50;69.00
39655;DHT22;25336;59.944;11.010;2022-10-22T11:17:47;9.70;68.70
39655;DHT22;25336;59.944;11.010;2022-10-22T11:20:17;9.70;68.70
39655;DHT22;25336;59.944;11.010;2022-10-22T11:22:51;9.70;68.60
39655;DHT22;25336;59.944;11.010;2022-10-22T11:25:26;10.30;69.00
39655;DHT22;25336;59.944;11.010;2022-10-22T11:30:27;9.70;68.90
39655;DHT22;25336;59.944;11.010;2022-10-22T11:33:02;9.70;68.70
39655;DHT22;25336;59.944;11.010;2022-10-22T11:35:34;9.70;68.60
39655;DHT22;25336;59.944;11.010;2022-10-22T11:38:04;11.00;69.60
39655;DHT22;25336;59.944;11.010;2022-10-22T11:40:38;9.80;68.90
39655;DHT22;25336;59.944;11.010;2022-10-22T11:43:09;9.80;68.90
39655;DHT22;25336;59.944;11.010;2022-10-22T11:45:37;9.90;69.10
39655;DHT22;25336;59.944;11.010;2022-10-22T11:50:56;11.50;70.00
39655;DHT22;25336;59.944;11.010;2022-10-22T11:53:36;10.00;68.60
39655;DHT22;25336;59.944;11.010;2022-10-22T12:16:50;10.30;68.00
39655;DHT22;25336;59.944;11.010;2022-10-22T12:21:47;10.40;68.00
39655;DHT22;25336;59.944;11.010;2022-10-22T12:24:16;10.50;68.00
39655;DHT22;25336;59.944;11.010;2022-10-22T12:26:43;10.60;67.90
39655;DHT22;25336;59.944;11.010;2022-10-22T12:29:12;10.60;67.60
39655;DHT22;25336;59.944;11.010;2022-10-22T12:31:40;10.60;67.20
39655;DHT22;25336;59.944;11.010;2022-10-22T12:34:13;10.60;67.30
39655;DHT22;25336;59.944;11.010;2022-10-22T12:36:38;12.00;68.00
39655;DHT22;25336;59.944;11.010;2022-10-22T12:39:15;10.60;67.20
39655;DHT22;25336;59.944;11.010;2022-10-22T12:41:41;10.60;67.10
39655;DHT22;25336;59.944;11.010;2022-10-22T12:44:14;10.70;67.40
39655;DHT22;25336;59.944;11.010;2022-10-22T12:46:41;11.70;67.90
39655;DHT22;25336;59.944;11.010;2022-10-22T12:49:15;11.10;68.10
39655;DHT22;25336;59.944;11.010;2022-10-22T12:51:41;10.70;66.70
39655;DHT22;25336;59.944;11.010;2022-10-22T12:56:42;12.10;66.90
39655;DHT22;25336;59.944;11.010;2022-10-22T12:59:19;12.10;67.10
39655;DHT22;25336;59.944;11.010;2022-10-22T13:01:45;10.70;66.00
39655;DHT22;25336;59.944;11.010;2022-10-22T13:04:30;10.70;66.20
39655;DHT22;25336;59.944;11.010;2022-10-22T13:09:37;10.70;65.90
39655;DHT22;25336;59.944;11.010;2022-10-22T13:12:04;10.70;65.50
39655;DHT22;25336;59.944;11.010;2022-10-22T13:22:00;10.60;65.90
39655;DHT22;25336;59.944;11.010;2022-10-22T13:24:26;10.60;66.00
39655;DHT22;25336;59.944;11.010;2022-10-22T13:26:53;10.60;66.00
39655;DHT22;25336;59.944;11.010;2022-10-22T13:29:20;11.60;66.60
39655;DHT22;25336;59.944;11.010;2022-10-22T13:31:49;10.60;65.80
39655;DHT22;25336;59.944;11.010;2022-10-22T13:34:20;10.60;66.10
39655;DHT22;25336;59.944;11.010;2022-10-22T13:36:47;10.50;66.10
39655;DHT22;25336;59.944;11.010;2022-10-22T13:39:22;10.50;66.30
39655;DHT22;25336;59.944;11.010;2022-10-22T13:41:49;10.50;66.10
39655;DHT22;25336;59.944;11.010;2022-10-22T13:44:18;12.20;67.40
39655;DHT22;25336;59.944;11.010;2022-10-22T13:46:45;10.50;66.30
39655;DHT22;25336;59.944;11.010;2022-10-22T13:49:20;10.50;66.20
39655;DHT22;25336;59.944;11.010;2022-10-22T13:51:47;11.50;66.50
39655;DHT22;25336;59.944;11.010;2022-10-22T13:54:18;10.50;66.20
39655;DHT22;25336;59.944;11.010;2022-10-22T13:56:44;10.60;66.30
39655;DHT22;25336;59.944;11.010;2022-10-22T13:59:10;11.30;66.70
39655;DHT22;25336;59.944;11.010;2022-10-22T14:01:36;10.60;66.20
39655;DHT22;25336;59.944;11.010;2022-10-22T14:04:04;10.60;66.20
39655;DHT22;25336;59.944;11.010;2022-10-22T14:06:31;10.60;66.40
39655;DHT22;25336;59.944;11.010;2022-10-22T14:09:06;11.30;66.80
39655;DHT22;25336;59.944;11.010;2022-10-22T14:11:33;12.10;67.80
39655;DHT22;25336;59.944;11.010;2022-10-22T14:13:59;12.40;67.40
39655;DHT22;25336;59.944;11.010;2022-10-22T14:16:28;11.70;66.90
39655;DHT22;25336;59.944;11.010;2022-10-22T14:18:56;10.70;66.30
39655;DHT22;25336;59.944;11.010;2022-10-22T14:21:22;10.70;66.40
39655;DHT22;25336;59.944;11.010;2022-10-22T14:23:48;10.80;66.30
39655;DHT22;25336;59.944;11.010;2022-10-22T14:26:24;10.80;66.20
39655;DHT22;25336;59.944;11.010;2022-10-22T14:28:52;11.40;66.10
39655;DHT22;25336;59.944;11.010;2022-10-22T14:31:18;10.30;65.40
39655;DHT22;25336;59.944;11.010;2022-10-22T14:33:47;10.80;65.60
39655;DHT22;25336;59.944;11.010;2022-10-22T14:36:16;10.80;65.90
39655;DHT22;25336;59.944;11.010;2022-10-22T14:38:43;10.80;65.80
39655;DHT22;25336;59.944;11.010;2022-10-22T14:41:21;11.40;66.20
39655;DHT22;25336;59.944;11.010;2022-10-22T14:43:48;10.80;65.50
39655;DHT22;25336;59.944;11.010;2022-10-22T14:46:15;10.80;65.60
39655;DHT22;25336;59.944;11.010;2022-10-22T14:48:41;10.80;65.50
39655;DHT22;25336;59.944;11.010;2022-10-22T14:51:15;10.60;65.40
39655;DHT22;25336;59.944;11.010;2022-10-22T14:53:41;10.80;65.60
39655;DHT22;25336;59.944;11.010;2022-10-22T14:56:11;10.80;65.70
39655;DHT22;25336;59.944;11.010;2022-10-22T14:58:37;12.20;66.40
39655;DHT22;25336;59.944;11.010;2022-10-22T15:01:03;10.80;65.70
39655;DHT22;25336;59.944;11.010;2022-10-22T15:03:29;10.80;65.80
39655;DHT22;25336;59.944;11.010;2022-10-22T15:05:55;10.80;65.80
39655;DHT22;25336;59.944;11.010;2022-10-22T15:08:21;10.80;65.80
39655;DHT22;25336;59.944;11.010;2022-10-22T15:13:23;11.70;66.20
39655;DHT22;25336;59.944;11.010;2022-10-22T15:15:49;10.80;65.80
39655;DHT22;25336;59.944;11.010;2022-10-22T15:18:14;10.80;65.80
39655;DHT22;25336;59.944;11.010;2022-10-22T15:20:40;10.80;65.70
39655;DHT22;25336;59.944;11.010;2022-10-22T15:23:06;10.80;65.60
39655;DHT22;25336;59.944;11.010;2022-10-22T15:25:32;10.80;65.50
39655;DHT22;25336;59.944;11.010;2022-10-22T15:27:57;10.80;65.40
39655;DHT22;25336;59.944;11.010;2022-10-22T15:30:23;10.70;65.40
39655;DHT22;25336;59.944;11.010;2022-10-22T15:32:49;10.70;65.50
39655;DHT22;25336;59.944;11.010;2022-10-22T15:35:14;11.30;65.90
39655;DHT22;25336;59.944;11.010;2022-10-22T15:37:40;10.70;65.60
39655;DHT22;25336;59.944;11.010;2022-10-22T15:40:06;11.70;66.20
39655;DHT22;25336;59.944;11.010;2022-10-22T15:42:33;10.60;65.60
39655;DHT22;25336;59.944;11.010;2022-10-22T15:44:58;10.90;65.80
39655;DHT22;25336;59.944;11.010;2022-10-22T15:47:24;10.60;65.60
39655;DHT22;25336;59.944;11.010;2022-10-22T15:49:53;10.50;65.60
39655;DHT22;25336;59.944;11.010;2022-10-22T15:52:19;10.50;65.70
39655;DHT22;25336;59.944;11.010;2022-10-22T15:54:46;10.50;65.80
39655;DHT22;25336;59.944;11.010;2022-10-22T15:57:11;10.40;65.80
39655;DHT22;25336;59.944;11.010;2022-10-22T15:59:37;11.00;66.20
39655;DHT22;25336;59.944;11.010;2022-10-22T16:02:03;10.50;66.00
39655;DHT22;25336;59.944;11.010;2022-10-22T16:04:29;10.40;66.00
39655;DHT22;25336;59.944;11.010;2022-10-22T16:06:54;10.30;65.90
39655;DHT22;25336;59.944;11.010;2022-10-22T16:09:23;10.30;66.00
39655;DHT22;25336;59.944;11.010;2022-10-22T16:11:50;10.30;66.00
39655;DHT22;25336;59.944;11.010;2022-10-22T16:14:18;10.30;66.00
39655;DHT22;25336;59.944;11.010;2022-10-22T16:16:47;10.20;66.00
39655;DHT22;25336;59.944;11.010;2022-10-22T16:19:14;10.20;66.00
39655;DHT22;25336;59.944;11.010;2022-10-22T16:21:40;10.10;65.90
39655;DHT22;25336;59.944;11.010;2022-10-22T16:24:09;11.00;67.40
39655;DHT22;25336;59.944;11.010;2022-10-22T16:26:37;10.10;66.00
39655;DHT22;25336;59.944;11.010;2022-10-22T16:29:04;9.90;66.00
39655;DHT22;25336;59.944;11.010;2022-10-22T16:31:30;9.90;66.10
39655;DHT22;25336;59.944;11.010;2022-10-22T16:33:56;9.80;66.20
39655;DHT22;25336;59.944;11.010;2022-10-22T16:36:24;10.00;66.40
39655;DHT22;25336;59.944;11.010;2022-10-22T16:38:50;11.10;67.20
39655;DHT22;25336;59.944;11.010;2022-10-22T16:41:18;9.60;66.30
39655;DHT22;25336;59.944;11.010;2022-10-22T16:43:45;9.60;66.40
39655;DHT22;25336;59.944;11.010;2022-10-22T16:46:17;9.50;66.50
39655;DHT22;25336;59.944;11.010;2022-10-22T16:48:44;9.40;66.60
39655;DHT22;25336;59.944;11.010;2022-10-22T16:51:12;9.30;66.70
39655;DHT22;25336;59.944;11.010;2022-10-22T16:53:38;9.30;66.80
39655;DHT22;25336;59.944;11.010;2022-10-22T16:56:11;9.20;66.70
39655;DHT22;25336;59.944;11.010;2022-10-22T16:58:38;9.10;66.90
39655;DHT22;25336;59.944;11.010;2022-10-22T17:01:07;9.10;67.00
39655;DHT22;25336;59.944;11.010;2022-10-22T17:03:39;9.00;67.10
39655;DHT22;25336;59.944;11.010;2022-10-22T17:06:08;8.90;67.10
39655;DHT22;25336;59.944;11.010;2022-10-22T17:08:35;10.50;68.30
39655;DHT22;25336;59.944;11.010;2022-10-22T17:11:17;9.60;67.90
39655;DHT22;25336;59.944;11.010;2022-10-22T17:13:44;8.80;67.40
39655;DHT22;25336;59.944;11.010;2022-10-22T17:16:12;8.60;67.30
39655;DHT22;25336;59.944;11.010;2022-10-22T17:18:39;8.50;67.40
39655;DHT22;25336;59.944;11.010;2022-10-22T17:21:07;10.00;68.60
39655;DHT22;25336;59.944;11.010;2022-10-22T17:23:33;9.30;68.40
39655;DHT22;25336;59.944;11.010;2022-10-22T17:26:03;8.50;67.90
39655;DHT22;25336;59.944;11.010;2022-10-22T17:28:31;8.30;68.00
39655;DHT22;25336;59.944;11.010;2022-10-22T17:33:42;8.10;68.60
39655;DHT22;25336;59.944;11.010;2022-10-22T17:36:08;8.00;68.40